sensor_id;sensor_type;location;lat;lon;timestamp;P1;durP1;ratioP1;P2;durP2;ratioP2
67896;SDS011;54698;48.428;9.964;2022-08-01T00:00:51;4.38;;;1.80;;
67896;SDS011;54698;48.428;9.964;2022-08-01T00:03:17;4.30;;;1.73;;
67896;SDS011;54698;48.428;9.964;2022-08-01T00:05:43;4.22;;;1.73;;
67896;SDS011;54698;48.428;9.964;2022-08-01T00:08:10;8.43;;;1.58;;
67896;SDS011;54698;48.428;9.964;2022-08-01T00:10:36;5.13;;;2.10;;
67896;SDS011;54698;48.428;9.964;2022-08-01T00:13:02;4.55;;;1.67;;
67896;SDS011;54698;48.428;9.964;2022-08-01T00:15:28;4.25;;;1.58;;
67896;SDS011;54698;48.428;9.964;2022-08-01T00:17:53;6.93;;;1.90;;
67896;SDS011;54698;48.428;9.964;2022-08-01T00:20:19;6.07;;;1.58;;
67896;SDS011;54698;48.428;9.964;2022-08-01T00:22:45;4.75;;;1.67;;
67896;SDS011;54698;48.428;9.964;2022-08-01T00:25:12;4.10;;;1.70;;
67896;SDS011;54698;48.428;9.964;2022-08-01T00:27:38;9.32;;;2.30;;
67896;SDS011;54698;48.428;9.964;2022-08-01T00:30:04;6.30;;;2.33;;
67896;SDS011;54698;48.428;9.964;2022-08-01T00:32:32;3.60;;;1.50;;
67896;SDS011;54698;48.428;9.964;2022-08-01T00:34:57;5.38;;;1.42;;
67896;SDS011;54698;48.428;9.964;2022-08-01T00:37:23;4.63;;;1.40;;
67896;SDS011;54698;48.428;9.964;2022-08-01T00:39:49;6.03;;;1.75;;
67896;SDS011;54698;48.428;9.964;2022-08-01T00:42:16;5.97;;;2.20;;
67896;SDS011;54698;48.428;9.964;2022-08-01T00:44:42;4.60;;;1.90;;
67896;SDS011;54698;48.428;9.964;2022-08-01T00:47:08;4.55;;;1.52;;
67896;SDS011;54698;48.428;9.964;2022-08-01T00:49:34;4.28;;;1.55;;
67896;SDS011;54698;48.428;9.964;2022-08-01T00:52:00;6.03;;;1.65;;
67896;SDS011;54698;48.428;9.964;2022-08-01T00:54:28;4.38;;;1.48;;
67896;SDS011;54698;48.428;9.964;2022-08-01T00:56:55;7.30;;;2.15;;
67896;SDS011;54698;48.428;9.964;2022-08-01T00:59:24;4.80;;;1.67;;
67896;SDS011;54698;48.428;9.964;2022-08-01T01:01:51;4.30;;;1.60;;
67896;SDS011;54698;48.428;9.964;2022-08-01T01:04:17;5.45;;;1.50;;
67896;SDS011;54698;48.428;9.964;2022-08-01T01:06:44;5.28;;;1.80;;
67896;SDS011;54698;48.428;9.964;2022-08-01T01:09:24;7.10;;;1.90;;
67896;SDS011;54698;48.428;9.964;2022-08-01T01:12:01;5.68;;;1.70;;
67896;SDS011;54698;48.428;9.964;2022-08-01T01:14:44;4.28;;;1.60;;
67896;SDS011;54698;48.428;9.964;2022-08-01T01:17:20;6.50;;;2.17;;
67896;SDS011;54698;48.428;9.964;2022-08-01T01:19:53;5.70;;;1.88;;
67896;SDS011;54698;48.428;9.964;2022-08-01T01:22:25;3.42;;;1.50;;
67896;SDS011;54698;48.428;9.964;2022-08-01T01:25:08;4.90;;;1.70;;
67896;SDS011;54698;48.428;9.964;2022-08-01T01:27:51;4.55;;;2.08;;
67896;SDS011;54698;48.428;9.964;2022-08-01T01:30:29;7.93;;;2.20;;
67896;SDS011;54698;48.428;9.964;2022-08-01T01:32:57;7.00;;;1.45;;
67896;SDS011;54698;48.428;9.964;2022-08-01T01:35:28;7.57;;;2.50;;
67896;SDS011;54698;48.428;9.964;2022-08-01T01:38:00;4.70;;;1.65;;
67896;SDS011;54698;48.428;9.964;2022-08-01T01:40:30;4.35;;;1.83;;
67896;SDS011;54698;48.428;9.964;2022-08-01T01:42:56;4.57;;;1.90;;
67896;SDS011;54698;48.428;9.964;2022-08-01T01:45:23;3.63;;;1.85;;
67896;SDS011;54698;48.428;9.964;2022-08-01T01:47:50;4.40;;;1.80;;
67896;SDS011;54698;48.428;9.964;2022-08-01T01:50:19;6.65;;;1.95;;
67896;SDS011;54698;48.428;9.964;2022-08-01T01:52:46;5.82;;;2.03;;
67896;SDS011;54698;48.428;9.964;2022-08-01T01:55:13;4.80;;;2.03;;
67896;SDS011;54698;48.428;9.964;2022-08-01T01:57:42;6.75;;;2.90;;
67896;SDS011;54698;48.428;9.964;2022-08-01T02:00:10;3.85;;;1.60;;
67896;SDS011;54698;48.428;9.964;2022-08-01T02:02:38;6.78;;;2.00;;
67896;SDS011;54698;48.428;9.964;2022-08-01T02:05:07;9.55;;;2.33;;
67896;SDS011;54698;48.428;9.964;2022-08-01T02:07:35;5.10;;;2.00;;
67896;SDS011;54698;48.428;9.964;2022-08-01T02:10:03;4.68;;;2.10;;
67896;SDS011;54698;48.428;9.964;2022-08-01T02:12:32;4.03;;;2.00;;
67896;SDS011;54698;48.428;9.964;2022-08-01T02:15:00;3.65;;;1.67;;
67896;SDS011;54698;48.428;9.964;2022-08-01T02:17:29;5.00;;;2.25;;
67896;SDS011;54698;48.428;9.964;2022-08-01T02:19:56;5.30;;;2.20;;
67896;SDS011;54698;48.428;9.964;2022-08-01T02:22:26;4.93;;;1.80;;
67896;SDS011;54698;48.428;9.964;2022-08-01T02:24:58;4.55;;;1.88;;
67896;SDS011;54698;48.428;9.964;2022-08-01T02:27:30;5.45;;;1.60;;
67896;SDS011;54698;48.428;9.964;2022-08-01T02:30:02;4.43;;;1.73;;
67896;SDS011;54698;48.428;9.964;2022-08-01T02:32:32;6.15;;;2.13;;
67896;SDS011;54698;48.428;9.964;2022-08-01T02:35:03;5.22;;;2.20;;
67896;SDS011;54698;48.428;9.964;2022-08-01T02:37:34;5.15;;;1.98;;
67896;SDS011;54698;48.428;9.964;2022-08-01T02:40:03;5.05;;;2.20;;
67896;SDS011;54698;48.428;9.964;2022-08-01T02:42:31;5.68;;;2.17;;
67896;SDS011;54698;48.428;9.964;2022-08-01T02:44:59;7.55;;;2.17;;
67896;SDS011;54698;48.428;9.964;2022-08-01T02:47:27;5.20;;;2.20;;
67896;SDS011;54698;48.428;9.964;2022-08-01T02:49:55;5.57;;;2.22;;
67896;SDS011;54698;48.428;9.964;2022-08-01T02:52:24;10.50;;;2.35;;
67896;SDS011;54698;48.428;9.964;2022-08-01T02:54:53;5.53;;;2.38;;
67896;SDS011;54698;48.428;9.964;2022-08-01T02:57:21;5.03;;;2.03;;
67896;SDS011;54698;48.428;9.964;2022-08-01T02:59:48;7.05;;;2.28;;
67896;SDS011;54698;48.428;9.964;2022-08-01T03:02:15;5.25;;;2.40;;
67896;SDS011;54698;48.428;9.964;2022-08-01T03:04:42;5.05;;;2.25;;
67896;SDS011;54698;48.428;9.964;2022-08-01T03:07:10;6.05;;;2.20;;
67896;SDS011;54698;48.428;9.964;2022-08-01T03:09:38;5.32;;;1.80;;
67896;SDS011;54698;48.428;9.964;2022-08-01T03:12:09;5.55;;;2.72;;
67896;SDS011;54698;48.428;9.964;2022-08-01T03:14:38;4.90;;;2.03;;
67896;SDS011;54698;48.428;9.964;2022-08-01T03:17:05;6.03;;;2.15;;
67896;SDS011;54698;48.428;9.964;2022-08-01T03:19:32;7.78;;;2.33;;
67896;SDS011;54698;48.428;9.964;2022-08-01T03:21:59;10.38;;;3.30;;
67896;SDS011;54698;48.428;9.964;2022-08-01T03:24:27;6.32;;;2.50;;
67896;SDS011;54698;48.428;9.964;2022-08-01T03:26:54;5.80;;;2.53;;
67896;SDS011;54698;48.428;9.964;2022-08-01T03:29:25;4.90;;;2.25;;
67896;SDS011;54698;48.428;9.964;2022-08-01T03:31:53;5.50;;;2.08;;
67896;SDS011;54698;48.428;9.964;2022-08-01T03:34:19;6.13;;;2.15;;
67896;SDS011;54698;48.428;9.964;2022-08-01T03:36:46;5.75;;;2.25;;
67896;SDS011;54698;48.428;9.964;2022-08-01T03:39:22;5.93;;;2.33;;
67896;SDS011;54698;48.428;9.964;2022-08-01T03:41:55;6.00;;;2.00;;
67896;SDS011;54698;48.428;9.964;2022-08-01T03:44:30;5.43;;;2.17;;
67896;SDS011;54698;48.428;9.964;2022-08-01T03:46:59;6.80;;;2.50;;
67896;SDS011;54698;48.428;9.964;2022-08-01T03:49:31;6.43;;;2.35;;
67896;SDS011;54698;48.428;9.964;2022-08-01T03:52:01;5.25;;;1.85;;
67896;SDS011;54698;48.428;9.964;2022-08-01T03:54:30;5.38;;;2.38;;
67896;SDS011;54698;48.428;9.964;2022-08-01T03:56:59;4.97;;;2.60;;
67896;SDS011;54698;48.428;9.964;2022-08-01T03:59:27;4.90;;;2.15;;
67896;SDS011;54698;48.428;9.964;2022-08-01T04:01:55;6.25;;;2.42;;
67896;SDS011;54698;48.428;9.964;2022-08-01T04:04:21;5.20;;;2.55;;
67896;SDS011;54698;48.428;9.964;2022-08-01T04:06:47;4.88;;;2.00;;
67896;SDS011;54698;48.428;9.964;2022-08-01T04:09:13;4.97;;;1.95;;
67896;SDS011;54698;48.428;9.964;2022-08-01T04:11:39;5.82;;;1.90;;
67896;SDS011;54698;48.428;9.964;2022-08-01T04:14:06;5.68;;;2.20;;
67896;SDS011;54698;48.428;9.964;2022-08-01T04:16:33;3.90;;;2.05;;
67896;SDS011;54698;48.428;9.964;2022-08-01T04:18:59;3.85;;;1.73;;
67896;SDS011;54698;48.428;9.964;2022-08-01T04:21:25;4.93;;;2.03;;
67896;SDS011;54698;48.428;9.964;2022-08-01T04:23:52;4.95;;;2.15;;
67896;SDS011;54698;48.428;9.964;2022-08-01T04:26:21;4.57;;;2.05;;
67896;SDS011;54698;48.428;9.964;2022-08-01T04:28:48;6.05;;;2.72;;
67896;SDS011;54698;48.428;9.964;2022-08-01T04:31:17;4.95;;;1.80;;
67896;SDS011;54698;48.428;9.964;2022-08-01T04:33:47;5.90;;;2.10;;
67896;SDS011;54698;48.428;9.964;2022-08-01T04:36:16;7.32;;;2.05;;
67896;SDS011;54698;48.428;9.964;2022-08-01T04:38:45;6.45;;;2.53;;
67896;SDS011;54698;48.428;9.964;2022-08-01T04:41:13;7.75;;;2.22;;
67896;SDS011;54698;48.428;9.964;2022-08-01T04:43:41;9.95;;;2.50;;
67896;SDS011;54698;48.428;9.964;2022-08-01T04:46:07;6.40;;;2.42;;
67896;SDS011;54698;48.428;9.964;2022-08-01T04:48:36;6.53;;;2.50;;
67896;SDS011;54698;48.428;9.964;2022-08-01T04:51:06;6.95;;;2.50;;
67896;SDS011;54698;48.428;9.964;2022-08-01T04:53:37;5.70;;;2.15;;
67896;SDS011;54698;48.428;9.964;2022-08-01T04:56:03;6.30;;;2.33;;
67896;SDS011;54698;48.428;9.964;2022-08-01T04:58:30;6.82;;;3.05;;
67896;SDS011;54698;48.428;9.964;2022-08-01T05:00:56;5.63;;;2.65;;
67896;SDS011;54698;48.428;9.964;2022-08-01T05:03:22;5.68;;;2.40;;
67896;SDS011;54698;48.428;9.964;2022-08-01T05:05:47;5.05;;;2.50;;
67896;SDS011;54698;48.428;9.964;2022-08-01T05:08:14;5.30;;;2.38;;
67896;SDS011;54698;48.428;9.964;2022-08-01T05:10:40;6.00;;;2.60;;
67896;SDS011;54698;48.428;9.964;2022-08-01T05:13:06;6.88;;;2.70;;
67896;SDS011;54698;48.428;9.964;2022-08-01T05:15:33;7.80;;;2.58;;
67896;SDS011;54698;48.428;9.964;2022-08-01T05:17:59;5.90;;;2.63;;
67896;SDS011;54698;48.428;9.964;2022-08-01T05:20:25;5.80;;;2.85;;
67896;SDS011;54698;48.428;9.964;2022-08-01T05:22:51;5.45;;;2.22;;
67896;SDS011;54698;48.428;9.964;2022-08-01T05:25:18;6.70;;;2.50;;
67896;SDS011;54698;48.428;9.964;2022-08-01T05:27:44;5.20;;;1.95;;
67896;SDS011;54698;48.428;9.964;2022-08-01T05:30:10;5.43;;;2.60;;
67896;SDS011;54698;48.428;9.964;2022-08-01T05:32:36;5.25;;;1.90;;
67896;SDS011;54698;48.428;9.964;2022-08-01T05:35:02;5.25;;;2.17;;
67896;SDS011;54698;48.428;9.964;2022-08-01T05:37:29;6.15;;;2.50;;
67896;SDS011;54698;48.428;9.964;2022-08-01T05:39:55;4.97;;;2.08;;
67896;SDS011;54698;48.428;9.964;2022-08-01T05:42:22;5.43;;;2.45;;
67896;SDS011;54698;48.428;9.964;2022-08-01T05:44:48;5.18;;;2.28;;
67896;SDS011;54698;48.428;9.964;2022-08-01T05:47:14;5.72;;;2.30;;
67896;SDS011;54698;48.428;9.964;2022-08-01T05:49:40;5.40;;;2.70;;
67896;SDS011;54698;48.428;9.964;2022-08-01T05:52:06;6.07;;;2.70;;
67896;SDS011;54698;48.428;9.964;2022-08-01T05:54:31;5.53;;;2.13;;
67896;SDS011;54698;48.428;9.964;2022-08-01T05:56:57;5.60;;;1.83;;
67896;SDS011;54698;48.428;9.964;2022-08-01T05:59:25;6.13;;;2.97;;
67896;SDS011;54698;48.428;9.964;2022-08-01T06:01:50;6.75;;;2.50;;
67896;SDS011;54698;48.428;9.964;2022-08-01T06:04:16;4.78;;;2.30;;
67896;SDS011;54698;48.428;9.964;2022-08-01T06:06:42;5.28;;;2.15;;
67896;SDS011;54698;48.428;9.964;2022-08-01T06:09:08;4.50;;;2.00;;
67896;SDS011;54698;48.428;9.964;2022-08-01T06:11:34;4.97;;;2.00;;
67896;SDS011;54698;48.428;9.964;2022-08-01T06:14:00;6.05;;;1.92;;
67896;SDS011;54698;48.428;9.964;2022-08-01T06:16:27;4.63;;;2.17;;
67896;SDS011;54698;48.428;9.964;2022-08-01T06:18:53;5.03;;;1.85;;
67896;SDS011;54698;48.428;9.964;2022-08-01T06:21:18;5.45;;;2.10;;
67896;SDS011;54698;48.428;9.964;2022-08-01T06:23:44;6.03;;;2.53;;
67896;SDS011;54698;48.428;9.964;2022-08-01T06:26:10;6.72;;;1.88;;
67896;SDS011;54698;48.428;9.964;2022-08-01T06:28:36;4.72;;;1.85;;
67896;SDS011;54698;48.428;9.964;2022-08-01T06:31:02;4.93;;;1.90;;
67896;SDS011;54698;48.428;9.964;2022-08-01T06:33:29;4.82;;;2.08;;
67896;SDS011;54698;48.428;9.964;2022-08-01T06:35:55;6.13;;;2.10;;
67896;SDS011;54698;48.428;9.964;2022-08-01T06:38:21;6.68;;;2.38;;
67896;SDS011;54698;48.428;9.964;2022-08-01T06:40:47;5.95;;;2.08;;
67896;SDS011;54698;48.428;9.964;2022-08-01T06:43:13;5.60;;;2.25;;
67896;SDS011;54698;48.428;9.964;2022-08-01T06:45:39;6.25;;;2.60;;
67896;SDS011;54698;48.428;9.964;2022-08-01T06:48:05;5.93;;;2.03;;
67896;SDS011;54698;48.428;9.964;2022-08-01T06:50:33;4.82;;;1.90;;
67896;SDS011;54698;48.428;9.964;2022-08-01T06:52:59;4.15;;;2.10;;
67896;SDS011;54698;48.428;9.964;2022-08-01T06:55:25;6.20;;;1.85;;
67896;SDS011;54698;48.428;9.964;2022-08-01T06:57:51;5.20;;;2.00;;
67896;SDS011;54698;48.428;9.964;2022-08-01T07:00:17;4.88;;;2.10;;
67896;SDS011;54698;48.428;9.964;2022-08-01T07:02:45;4.30;;;1.90;;
67896;SDS011;54698;48.428;9.964;2022-08-01T07:05:11;5.13;;;1.88;;
67896;SDS011;54698;48.428;9.964;2022-08-01T07:07:39;5.00;;;1.73;;
67896;SDS011;54698;48.428;9.964;2022-08-01T07:10:05;3.72;;;1.52;;
67896;SDS011;54698;48.428;9.964;2022-08-01T07:12:32;4.90;;;1.80;;
67896;SDS011;54698;48.428;9.964;2022-08-01T07:14:58;5.70;;;2.13;;
67896;SDS011;54698;48.428;9.964;2022-08-01T07:17:23;5.57;;;2.08;;
67896;SDS011;54698;48.428;9.964;2022-08-01T07:19:49;5.47;;;1.90;;
67896;SDS011;54698;48.428;9.964;2022-08-01T07:22:15;4.97;;;1.75;;
67896;SDS011;54698;48.428;9.964;2022-08-01T07:24:42;4.38;;;1.73;;
67896;SDS011;54698;48.428;9.964;2022-08-01T07:27:08;5.10;;;2.28;;
67896;SDS011;54698;48.428;9.964;2022-08-01T07:29:34;5.68;;;2.38;;
67896;SDS011;54698;48.428;9.964;2022-08-01T07:31:59;5.40;;;2.38;;
67896;SDS011;54698;48.428;9.964;2022-08-01T07:34:25;6.40;;;2.20;;
67896;SDS011;54698;48.428;9.964;2022-08-01T07:36:51;5.47;;;2.08;;
67896;SDS011;54698;48.428;9.964;2022-08-01T07:39:18;4.85;;;1.88;;
67896;SDS011;54698;48.428;9.964;2022-08-01T07:41:45;6.68;;;2.20;;
67896;SDS011;54698;48.428;9.964;2022-08-01T07:44:11;4.43;;;1.80;;
67896;SDS011;54698;48.428;9.964;2022-08-01T07:46:37;7.22;;;2.10;;
67896;SDS011;54698;48.428;9.964;2022-08-01T07:49:03;6.25;;;2.17;;
67896;SDS011;54698;48.428;9.964;2022-08-01T07:51:29;10.10;;;2.20;;
67896;SDS011;54698;48.428;9.964;2022-08-01T07:53:54;5.53;;;1.98;;
67896;SDS011;54698;48.428;9.964;2022-08-01T07:56:20;6.68;;;2.78;;
67896;SDS011;54698;48.428;9.964;2022-08-01T07:58:47;5.10;;;1.98;;
67896;SDS011;54698;48.428;9.964;2022-08-01T08:01:13;4.90;;;1.67;;
67896;SDS011;54698;48.428;9.964;2022-08-01T08:03:39;7.63;;;2.20;;
67896;SDS011;54698;48.428;9.964;2022-08-01T08:06:05;10.73;;;2.25;;
67896;SDS011;54698;48.428;9.964;2022-08-01T08:08:31;5.57;;;2.45;;
67896;SDS011;54698;48.428;9.964;2022-08-01T08:10:56;4.45;;;1.92;;
67896;SDS011;54698;48.428;9.964;2022-08-01T08:13:22;7.05;;;1.80;;
67896;SDS011;54698;48.428;9.964;2022-08-01T08:15:49;5.32;;;1.90;;
67896;SDS011;54698;48.428;9.964;2022-08-01T08:18:15;4.40;;;1.88;;
67896;SDS011;54698;48.428;9.964;2022-08-01T08:20:41;4.50;;;1.65;;
67896;SDS011;54698;48.428;9.964;2022-08-01T08:23:07;5.32;;;1.90;;
67896;SDS011;54698;48.428;9.964;2022-08-01T08:25:33;6.10;;;1.73;;
67896;SDS011;54698;48.428;9.964;2022-08-01T08:27:59;4.97;;;1.85;;
67896;SDS011;54698;48.428;9.964;2022-08-01T08:30:25;6.10;;;2.20;;
67896;SDS011;54698;48.428;9.964;2022-08-01T08:32:52;8.25;;;2.40;;
67896;SDS011;54698;48.428;9.964;2022-08-01T08:35:18;4.38;;;1.35;;
67896;SDS011;54698;48.428;9.964;2022-08-01T08:37:43;5.95;;;1.77;;
67896;SDS011;54698;48.428;9.964;2022-08-01T08:40:10;4.55;;;1.85;;
67896;SDS011;54698;48.428;9.964;2022-08-01T08:42:36;5.75;;;1.85;;
67896;SDS011;54698;48.428;9.964;2022-08-01T08:45:06;4.32;;;1.95;;
67896;SDS011;54698;48.428;9.964;2022-08-01T08:47:32;5.32;;;1.38;;
67896;SDS011;54698;48.428;9.964;2022-08-01T08:50:01;3.92;;;1.38;;
67896;SDS011;54698;48.428;9.964;2022-08-01T08:52:28;4.90;;;1.73;;
67896;SDS011;54698;48.428;9.964;2022-08-01T08:54:54;4.13;;;1.17;;
67896;SDS011;54698;48.428;9.964;2022-08-01T08:57:21;3.50;;;1.40;;
67896;SDS011;54698;48.428;9.964;2022-08-01T08:59:47;7.25;;;1.23;;
67896;SDS011;54698;48.428;9.964;2022-08-01T09:02:13;3.92;;;1.35;;
67896;SDS011;54698;48.428;9.964;2022-08-01T09:04:39;3.40;;;0.98;;
67896;SDS011;54698;48.428;9.964;2022-08-01T09:07:07;2.88;;;1.02;;
67896;SDS011;54698;48.428;9.964;2022-08-01T09:09:32;2.80;;;1.00;;
67896;SDS011;54698;48.428;9.964;2022-08-01T09:11:58;3.45;;;1.33;;
67896;SDS011;54698;48.428;9.964;2022-08-01T09:14:25;5.63;;;1.35;;
67896;SDS011;54698;48.428;9.964;2022-08-01T09:16:59;3.47;;;1.13;;
67896;SDS011;54698;48.428;9.964;2022-08-01T09:19:27;5.63;;;1.50;;
67896;SDS011;54698;48.428;9.964;2022-08-01T09:22:01;4.03;;;1.20;;
67896;SDS011;54698;48.428;9.964;2022-08-01T09:24:30;4.53;;;1.63;;
67896;SDS011;54698;48.428;9.964;2022-08-01T09:26:58;4.25;;;1.13;;
67896;SDS011;54698;48.428;9.964;2022-08-01T09:29:27;4.43;;;1.10;;
67896;SDS011;54698;48.428;9.964;2022-08-01T09:31:56;5.70;;;1.45;;
67896;SDS011;54698;48.428;9.964;2022-08-01T09:34:25;3.97;;;1.10;;
67896;SDS011;54698;48.428;9.964;2022-08-01T09:36:53;3.03;;;1.20;;
67896;SDS011;54698;48.428;9.964;2022-08-01T09:39:21;2.95;;;1.17;;
67896;SDS011;54698;48.428;9.964;2022-08-01T09:41:50;4.22;;;1.50;;
67896;SDS011;54698;48.428;9.964;2022-08-01T09:44:17;2.80;;;1.10;;
67896;SDS011;54698;48.428;9.964;2022-08-01T09:46:51;3.78;;;1.60;;
67896;SDS011;54698;48.428;9.964;2022-08-01T09:49:26;3.70;;;1.25;;
67896;SDS011;54698;48.428;9.964;2022-08-01T09:51:58;3.20;;;1.30;;
67896;SDS011;54698;48.428;9.964;2022-08-01T09:54:35;5.63;;;1.70;;
67896;SDS011;54698;48.428;9.964;2022-08-01T09:57:09;4.70;;;1.92;;
67896;SDS011;54698;48.428;9.964;2022-08-01T09:59:40;4.55;;;1.52;;
67896;SDS011;54698;48.428;9.964;2022-08-01T10:02:10;5.57;;;1.73;;
67896;SDS011;54698;48.428;9.964;2022-08-01T10:04:37;2.85;;;1.20;;
67896;SDS011;54698;48.428;9.964;2022-08-01T10:07:11;4.40;;;1.50;;
67896;SDS011;54698;48.428;9.964;2022-08-01T10:09:37;3.83;;;1.55;;
67896;SDS011;54698;48.428;9.964;2022-08-01T10:12:03;3.58;;;1.33;;
67896;SDS011;54698;48.428;9.964;2022-08-01T10:14:31;4.60;;;1.50;;
67896;SDS011;54698;48.428;9.964;2022-08-01T10:16:57;4.80;;;1.77;;
67896;SDS011;54698;48.428;9.964;2022-08-01T10:19:25;4.70;;;1.40;;
67896;SDS011;54698;48.428;9.964;2022-08-01T10:21:54;6.82;;;1.70;;
67896;SDS011;54698;48.428;9.964;2022-08-01T10:24:21;4.70;;;1.23;;
67896;SDS011;54698;48.428;9.964;2022-08-01T10:26:50;3.95;;;1.35;;
67896;SDS011;54698;48.428;9.964;2022-08-01T10:29:20;3.75;;;1.40;;
67896;SDS011;54698;48.428;9.964;2022-08-01T10:31:48;4.80;;;1.52;;
67896;SDS011;54698;48.428;9.964;2022-08-01T10:34:15;5.00;;;1.88;;
67896;SDS011;54698;48.428;9.964;2022-08-01T10:36:41;5.13;;;1.65;;
67896;SDS011;54698;48.428;9.964;2022-08-01T10:39:07;5.30;;;1.38;;
67896;SDS011;54698;48.428;9.964;2022-08-01T10:41:35;3.25;;;1.35;;
67896;SDS011;54698;48.428;9.964;2022-08-01T10:44:03;3.65;;;1.35;;
67896;SDS011;54698;48.428;9.964;2022-08-01T10:46:31;2.80;;;1.25;;
67896;SDS011;54698;48.428;9.964;2022-08-01T10:48:58;5.25;;;1.52;;
67896;SDS011;54698;48.428;9.964;2022-08-01T10:51:28;4.25;;;1.30;;
67896;SDS011;54698;48.428;9.964;2022-08-01T10:53:54;4.18;;;2.10;;
67896;SDS011;54698;48.428;9.964;2022-08-01T10:56:21;2.92;;;1.02;;
67896;SDS011;54698;48.428;9.964;2022-08-01T10:58:47;3.15;;;1.30;;
67896;SDS011;54698;48.428;9.964;2022-08-01T11:01:15;4.78;;;1.88;;
67896;SDS011;54698;48.428;9.964;2022-08-01T11:04:01;3.55;;;1.13;;
67896;SDS011;54698;48.428;9.964;2022-08-01T11:06:48;4.43;;;1.48;;
67896;SDS011;54698;48.428;9.964;2022-08-01T11:09:29;5.40;;;1.50;;
67896;SDS011;54698;48.428;9.964;2022-08-01T11:12:04;4.85;;;1.50;;
67896;SDS011;54698;48.428;9.964;2022-08-01T11:14:33;3.42;;;1.27;;
67896;SDS011;54698;48.428;9.964;2022-08-01T11:17:39;5.07;;;1.48;;
67896;SDS011;54698;48.428;9.964;2022-08-01T11:20:07;4.45;;;1.30;;
67896;SDS011;54698;48.428;9.964;2022-08-01T11:26:08;4.65;;;1.30;;
67896;SDS011;54698;48.428;9.964;2022-08-01T11:28:36;3.78;;;1.30;;
67896;SDS011;54698;48.428;9.964;2022-08-01T11:33:59;4.13;;;1.35;;
67896;SDS011;54698;48.428;9.964;2022-08-01T11:36:25;4.05;;;1.20;;
67896;SDS011;54698;48.428;9.964;2022-08-01T11:41:38;4.13;;;1.48;;
67896;SDS011;54698;48.428;9.964;2022-08-01T11:44:05;4.05;;;1.42;;
67896;SDS011;54698;48.428;9.964;2022-08-01T11:46:49;4.30;;;1.55;;
67896;SDS011;54698;48.428;9.964;2022-08-01T11:49:23;4.88;;;1.45;;
67896;SDS011;54698;48.428;9.964;2022-08-01T11:51:59;3.75;;;1.35;;
67896;SDS011;54698;48.428;9.964;2022-08-01T11:54:29;3.15;;;1.25;;
67896;SDS011;54698;48.428;9.964;2022-08-01T11:56:57;11.32;;;2.40;;
67896;SDS011;54698;48.428;9.964;2022-08-01T11:59:24;4.43;;;1.65;;
67896;SDS011;54698;48.428;9.964;2022-08-01T12:01:51;4.15;;;1.40;;
67896;SDS011;54698;48.428;9.964;2022-08-01T12:04:17;5.78;;;1.80;;
67896;SDS011;54698;48.428;9.964;2022-08-01T12:06:45;5.95;;;2.45;;
67896;SDS011;54698;48.428;9.964;2022-08-01T12:09:15;6.70;;;1.60;;
67896;SDS011;54698;48.428;9.964;2022-08-01T12:11:42;5.13;;;1.42;;
67896;SDS011;54698;48.428;9.964;2022-08-01T12:14:08;5.95;;;1.90;;
67896;SDS011;54698;48.428;9.964;2022-08-01T12:16:34;5.38;;;1.52;;
67896;SDS011;54698;48.428;9.964;2022-08-01T12:19:00;4.75;;;1.58;;
67896;SDS011;54698;48.428;9.964;2022-08-01T12:21:26;7.25;;;1.80;;
67896;SDS011;54698;48.428;9.964;2022-08-01T12:24:01;3.88;;;1.48;;
67896;SDS011;54698;48.428;9.964;2022-08-01T12:26:38;4.97;;;1.58;;
67896;SDS011;54698;48.428;9.964;2022-08-01T12:29:05;4.85;;;2.05;;
67896;SDS011;54698;48.428;9.964;2022-08-01T12:31:31;5.63;;;1.55;;
67896;SDS011;54698;48.428;9.964;2022-08-01T12:33:57;5.78;;;2.00;;
67896;SDS011;54698;48.428;9.964;2022-08-01T12:36:26;12.57;;;3.10;;
67896;SDS011;54698;48.428;9.964;2022-08-01T12:38:53;6.20;;;2.00;;
67896;SDS011;54698;48.428;9.964;2022-08-01T12:41:20;7.43;;;2.17;;
67896;SDS011;54698;48.428;9.964;2022-08-01T12:43:47;5.30;;;1.67;;
67896;SDS011;54698;48.428;9.964;2022-08-01T12:46:13;5.95;;;1.70;;
67896;SDS011;54698;48.428;9.964;2022-08-01T12:48:39;5.95;;;1.73;;
67896;SDS011;54698;48.428;9.964;2022-08-01T12:51:05;5.03;;;2.00;;
67896;SDS011;54698;48.428;9.964;2022-08-01T12:53:33;6.07;;;2.10;;
67896;SDS011;54698;48.428;9.964;2022-08-01T12:55:59;5.28;;;2.08;;
67896;SDS011;54698;48.428;9.964;2022-08-01T12:58:31;3.95;;;1.65;;
67896;SDS011;54698;48.428;9.964;2022-08-01T13:01:02;6.22;;;1.73;;
67896;SDS011;54698;48.428;9.964;2022-08-01T13:03:30;3.58;;;1.30;;
67896;SDS011;54698;48.428;9.964;2022-08-01T13:05:57;4.82;;;1.60;;
67896;SDS011;54698;48.428;9.964;2022-08-01T13:08:24;4.18;;;1.20;;
67896;SDS011;54698;48.428;9.964;2022-08-01T13:11:00;3.55;;;1.20;;
67896;SDS011;54698;48.428;9.964;2022-08-01T13:13:37;4.85;;;1.42;;
67896;SDS011;54698;48.428;9.964;2022-08-01T13:16:06;4.57;;;1.38;;
67896;SDS011;54698;48.428;9.964;2022-08-01T13:18:33;3.65;;;1.08;;
67896;SDS011;54698;48.428;9.964;2022-08-01T13:21:07;4.15;;;1.25;;
67896;SDS011;54698;48.428;9.964;2022-08-01T13:23:35;3.05;;;1.10;;
67896;SDS011;54698;48.428;9.964;2022-08-01T13:26:01;5.60;;;1.58;;
67896;SDS011;54698;48.428;9.964;2022-08-01T13:28:28;4.15;;;1.40;;
67896;SDS011;54698;48.428;9.964;2022-08-01T13:30:57;3.47;;;1.27;;
67896;SDS011;54698;48.428;9.964;2022-08-01T13:33:27;7.00;;;2.47;;
67896;SDS011;54698;48.428;9.964;2022-08-01T13:36:05;5.10;;;2.15;;
67896;SDS011;54698;48.428;9.964;2022-08-01T13:38:31;4.43;;;1.70;;
67896;SDS011;54698;48.428;9.964;2022-08-01T13:40:57;4.28;;;1.45;;
67896;SDS011;54698;48.428;9.964;2022-08-01T13:43:23;3.47;;;1.42;;
67896;SDS011;54698;48.428;9.964;2022-08-01T13:45:49;4.20;;;1.95;;
67896;SDS011;54698;48.428;9.964;2022-08-01T13:48:16;5.80;;;2.13;;
67896;SDS011;54698;48.428;9.964;2022-08-01T13:50:42;5.55;;;1.83;;
67896;SDS011;54698;48.428;9.964;2022-08-01T13:53:08;3.72;;;1.67;;
67896;SDS011;54698;48.428;9.964;2022-08-01T13:55:34;3.97;;;1.25;;
67896;SDS011;54698;48.428;9.964;2022-08-01T13:58:00;5.63;;;1.60;;
67896;SDS011;54698;48.428;9.964;2022-08-01T14:00:26;6.05;;;1.95;;
67896;SDS011;54698;48.428;9.964;2022-08-01T14:02:51;6.78;;;1.90;;
67896;SDS011;54698;48.428;9.964;2022-08-01T14:05:19;4.53;;;1.90;;
67896;SDS011;54698;48.428;9.964;2022-08-01T14:07:44;4.47;;;1.50;;
67896;SDS011;54698;48.428;9.964;2022-08-01T14:10:10;5.57;;;1.42;;
67896;SDS011;54698;48.428;9.964;2022-08-01T14:12:36;4.60;;;1.70;;
67896;SDS011;54698;48.428;9.964;2022-08-01T14:15:02;4.35;;;1.65;;
67896;SDS011;54698;48.428;9.964;2022-08-01T14:17:29;5.03;;;1.40;;
67896;SDS011;54698;48.428;9.964;2022-08-01T14:19:55;5.68;;;1.70;;
67896;SDS011;54698;48.428;9.964;2022-08-01T14:22:22;5.07;;;1.30;;
67896;SDS011;54698;48.428;9.964;2022-08-01T14:24:48;5.25;;;1.40;;
67896;SDS011;54698;48.428;9.964;2022-08-01T14:27:14;4.40;;;1.85;;
67896;SDS011;54698;48.428;9.964;2022-08-01T14:29:40;4.90;;;1.52;;
67896;SDS011;54698;48.428;9.964;2022-08-01T14:32:05;4.75;;;1.50;;
67896;SDS011;54698;48.428;9.964;2022-08-01T14:34:31;4.63;;;1.35;;
67896;SDS011;54698;48.428;9.964;2022-08-01T14:36:57;4.28;;;1.55;;
67896;SDS011;54698;48.428;9.964;2022-08-01T14:39:24;4.05;;;1.55;;
67896;SDS011;54698;48.428;9.964;2022-08-01T14:41:50;4.95;;;1.95;;
67896;SDS011;54698;48.428;9.964;2022-08-01T14:44:16;4.95;;;1.35;;
67896;SDS011;54698;48.428;9.964;2022-08-01T14:46:42;5.10;;;1.90;;
67896;SDS011;54698;48.428;9.964;2022-08-01T14:49:08;4.00;;;1.75;;
67896;SDS011;54698;48.428;9.964;2022-08-01T14:51:33;5.15;;;1.77;;
67896;SDS011;54698;48.428;9.964;2022-08-01T14:53:59;5.22;;;1.73;;
67896;SDS011;54698;48.428;9.964;2022-08-01T14:56:26;6.65;;;1.70;;
67896;SDS011;54698;48.428;9.964;2022-08-01T14:58:52;5.07;;;1.45;;
67896;SDS011;54698;48.428;9.964;2022-08-01T15:01:18;4.70;;;1.55;;